Time;durP1;ratioP1;P1;durP2;ratioP2;P2;SDS_P1;SDS_P2;PMS_P1;PMS_P2;Temp;Humidity;BMP_temperature;BMP_pressure;BME280_temperature;BME280_humidity;BME280_pressure;Samples;Min_cycle;Max_cycle;Signal;HPM_P1;HPM_P2
2022/12/18 00:00:42;;;;;;;80.32;36.10;;;;;;;;;;5039335;28;20205;-68
2022/12/18 00:03:09;;;;;;;80.68;35.67;;;;;;;;;;5039531;27;20202;-68
2022/12/18 00:05:35;;;;;;;84.18;36.90;;;;;;;;;;5039529;28;20198;-68
2022/12/18 00:08:02;;;;;;;92.10;38.40;;;;;;;;;;5039285;28;20209;-68
2022/12/18 00:10:28;;;;;;;94.43;40.40;;;;;;;;;;5039509;28;20497;-68
2022/12/18 00:12:55;;;;;;;91.90;38.05;;;;;;;;;;5039493;28;20497;-68
2022/12/18 00:15:22;;;;;;;86.80;38.42;;;;;;;;;;5039659;28;20211;-68
2022/12/18 00:17:48;;;;;;;89.07;38.65;;;;;;;;;;5039432;28;20226;-68
2022/12/18 00:20:14;;;;;;;85.03;37.63;;;;;;;;;;5039008;28;20205;-68
2022/12/18 00:22:41;;;;;;;89.88;39.33;;;;;;;;;;5039430;28;20202;-68
2022/12/18 00:25:07;;;;;;;96.70;39.80;;;;;;;;;;5039402;28;20209;-68
2022/12/18 00:27:33;;;;;;;86.13;38.00;;;;;;;;;;5039578;28;20205;-68
2022/12/18 00:30:01;;;;;;;88.43;38.13;;;;;;;;;;5039099;28;20198;-67
2022/12/18 00:32:27;;;;;;;88.25;38.50;;;;;;;;;;5042569;28;20198;-68
2022/12/18 00:34:54;;;;;;;95.72;39.55;;;;;;;;;;5043108;28;20198;-67
2022/12/18 00:37:20;;;;;;;89.57;39.63;;;;;;;;;;5042685;28;20217;-68
2022/12/18 00:39:48;;;;;;;91.00;38.78;;;;;;;;;;5042827;27;20512;-68
2022/12/18 00:44:58;;;;;;;84.85;38.08;;;;;;;;;;5042846;28;20226;-68
2022/12/18 00:47:26;;;;;;;91.40;38.42;;;;;;;;;;5042900;28;20424;-68
2022/12/18 00:49:52;;;;;;;84.82;38.17;;;;;;;;;;5042613;27;20258;-68
2022/12/18 00:52:18;;;;;;;84.95;37.25;;;;;;;;;;5042708;28;20198;-68
2022/12/18 00:54:44;;;;;;;83.60;39.03;;;;;;;;;;5042334;28;20221;-68
2022/12/18 00:57:11;;;;;;;84.68;37.53;;;;;;;;;;5042600;28;20228;-68
2022/12/18 00:59:37;;;;;;;93.68;39.35;;;;;;;;;;5042586;28;20198;-68
2022/12/18 01:02:03;;;;;;;96.20;38.67;;;;;;;;;;5042994;28;20201;-68
2022/12/18 01:04:33;;;;;;;89.72;39.08;;;;;;;;;;5042769;28;20209;-68
2022/12/18 01:06:59;;;;;;;88.75;37.70;;;;;;;;;;5042331;28;20421;-68
2022/12/18 01:09:25;;;;;;;81.13;35.42;;;;;;;;;;5042614;28;20205;-68
2022/12/18 01:11:52;;;;;;;91.82;37.85;;;;;;;;;;5042625;28;20240;-68
2022/12/18 01:14:18;;;;;;;85.03;37.72;;;;;;;;;;5042480;28;20493;-68
2022/12/18 01:16:44;;;;;;;85.75;36.13;;;;;;;;;;5042229;28;20217;-68
2022/12/18 01:19:11;;;;;;;82.03;34.30;;;;;;;;;;5042146;28;20434;-68
2022/12/18 01:21:38;;;;;;;79.07;34.90;;;;;;;;;;5042059;28;20206;-68
2022/12/18 01:24:05;;;;;;;78.97;34.47;;;;;;;;;;5041879;28;20198;-68
2022/12/18 01:26:31;;;;;;;79.18;33.65;;;;;;;;;;5042217;28;20488;-68
2022/12/18 01:28:58;;;;;;;78.72;33.88;;;;;;;;;;5041877;28;20217;-68
2022/12/18 01:31:26;;;;;;;71.95;32.30;;;;;;;;;;5042377;27;20268;-68
2022/12/18 01:33:52;;;;;;;81.70;35.63;;;;;;;;;;5042002;28;20371;-68
2022/12/18 01:36:20;;;;;;;80.25;33.63;;;;;;;;;;5041773;28;20198;-68
2022/12/18 01:38:49;;;;;;;76.32;34.65;;;;;;;;;;5041881;28;20201;-69
2022/12/18 01:41:17;;;;;;;70.43;32.28;;;;;;;;;;5042759;28;20220;-68
2022/12/18 01:43:44;;;;;;;78.90;34.40;;;;;;;;;;5040993;28;20204;-68
2022/12/18 01:46:11;;;;;;;80.00;34.05;;;;;;;;;;5041660;28;20198;-68
2022/12/18 01:48:37;;;;;;;71.97;32.53;;;;;;;;;;5041375;28;20201;-68
2022/12/18 01:51:03;;;;;;;73.35;33.97;;;;;;;;;;5041420;28;20205;-68
2022/12/18 01:53:30;;;;;;;70.65;31.50;;;;;;;;;;5042155;28;20529;-68
2022/12/18 01:55:58;;;;;;;66.57;32.20;;;;;;;;;;5041570;28;20198;-69
2022/12/18 01:58:28;;;;;;;64.70;30.02;;;;;;;;;;5041220;28;20222;-68
2022/12/18 02:00:54;;;;;;;68.18;31.17;;;;;;;;;;5041513;28;20205;-68
2022/12/18 02:03:21;;;;;;;68.60;31.45;;;;;;;;;;5041396;27;20384;-68
2022/12/18 02:05:49;;;;;;;66.18;30.13;;;;;;;;;;5041400;28;20204;-68
2022/12/18 02:08:17;;;;;;;74.38;32.53;;;;;;;;;;5041310;28;20200;-68
2022/12/18 02:10:47;;;;;;;63.33;29.13;;;;;;;;;;5041317;28;20198;-68
2022/12/18 02:13:19;;;;;;;68.82;30.85;;;;;;;;;;5041147;28;20497;-68
2022/12/18 02:15:51;;;;;;;68.47;30.70;;;;;;;;;;5041156;28;20201;-68
2022/12/18 02:18:19;;;;;;;72.82;31.90;;;;;;;;;;5041117;28;20229;-68
2022/12/18 02:20:48;;;;;;;69.72;31.77;;;;;;;;;;5041100;28;20528;-66
2022/12/18 02:23:22;;;;;;;77.38;32.90;;;;;;;;;;5041043;28;20527;-67
2022/12/18 02:25:59;;;;;;;69.32;31.05;;;;;;;;;;5041264;28;20200;-68
2022/12/18 02:28:27;;;;;;;70.07;31.85;;;;;;;;;;5041071;28;20548;-68
2022/12/18 02:30:54;;;;;;;72.30;31.83;;;;;;;;;;5041137;28;20205;-69
2022/12/18 02:33:21;;;;;;;71.38;32.33;;;;;;;;;;5040923;28;20202;-68
2022/12/18 02:35:48;;;;;;;62.17;29.05;;;;;;;;;;5040867;28;20198;-68
2022/12/18 02:38:15;;;;;;;65.00;29.13;;;;;;;;;;5040822;28;20225;-68
2022/12/18 02:40:42;;;;;;;64.05;29.35;;;;;;;;;;5041206;27;20427;-68
2022/12/18 02:43:10;;;;;;;63.75;28.50;;;;;;;;;;5040816;28;20212;-67
2022/12/18 02:45:37;;;;;;;64.78;30.08;;;;;;;;;;5040941;28;20198;-68
2022/12/18 02:48:04;;;;;;;60.63;28.05;;;;;;;;;;5041132;28;20473;-68
2022/12/18 02:50:35;;;;;;;62.58;28.63;;;;;;;;;;5040598;28;20217;-68
2022/12/18 02:53:05;;;;;;;61.55;29.65;;;;;;;;;;5040893;28;20213;-68
2022/12/18 02:55:36;;;;;;;64.07;30.58;;;;;;;;;;5040606;28;20212;-68
2022/12/18 02:58:04;;;;;;;65.20;29.17;;;;;;;;;;5040401;28;20230;-68
2022/12/18 03:00:35;;;;;;;61.05;28.58;;;;;;;;;;5040552;28;20202;-68
2022/12/18 03:03:06;;;;;;;63.53;29.25;;;;;;;;;;5040510;28;20276;-68
2022/12/18 03:05:35;;;;;;;63.70;28.15;;;;;;;;;;5040487;28;20216;-68
2022/12/18 03:08:04;;;;;;;62.03;29.30;;;;;;;;;;5040454;28;20539;-68
2022/12/18 03:10:31;;;;;;;56.67;27.63;;;;;;;;;;5040285;28;20205;-68
2022/12/18 03:13:01;;;;;;;55.95;27.25;;;;;;;;;;5040534;28;20205;-68
2022/12/18 03:15:29;;;;;;;61.92;27.98;;;;;;;;;;5040622;28;20210;-68
2022/12/18 03:17:59;;;;;;;60.78;28.23;;;;;;;;;;5040270;28;20289;-68
2022/12/18 03:20:26;;;;;;;65.45;28.45;;;;;;;;;;5040004;28;20205;-68
2022/12/18 03:22:56;;;;;;;58.95;28.02;;;;;;;;;;5040271;28;20509;-68
2022/12/18 03:25:23;;;;;;;59.85;26.63;;;;;;;;;;5040130;28;20267;-68
2022/12/18 03:27:52;;;;;;;60.75;27.10;;;;;;;;;;5040050;28;20256;-67
2022/12/18 03:30:18;;;;;;;60.88;28.25;;;;;;;;;;5040219;27;20197;-68
2022/12/18 03:32:48;;;;;;;57.03;25.67;;;;;;;;;;5040197;28;20221;-68
2022/12/18 03:35:18;;;;;;;59.80;26.75;;;;;;;;;;5040117;28;20201;-68
2022/12/18 03:37:45;;;;;;;51.10;25.95;;;;;;;;;;5039960;28;20255;-68
2022/12/18 03:40:11;;;;;;;58.28;27.30;;;;;;;;;;5039626;28;20205;-68
2022/12/18 03:42:42;;;;;;;61.03;28.02;;;;;;;;;;5039839;28;20198;-68
2022/12/18 03:45:10;;;;;;;60.85;26.92;;;;;;;;;;5039865;28;20201;-68
2022/12/18 03:47:39;;;;;;;64.47;27.23;;;;;;;;;;5040230;28;20197;-68
2022/12/18 03:50:08;;;;;;;58.80;26.08;;;;;;;;;;5039613;28;20198;-68
2022/12/18 03:52:37;;;;;;;57.47;28.08;;;;;;;;;;5039746;28;20206;-68
2022/12/18 03:55:04;;;;;;;55.85;27.30;;;;;;;;;;5039332;28;20205;-68
2022/12/18 03:57:32;;;;;;;64.43;27.30;;;;;;;;;;5039696;28;20217;-68
2022/12/18 03:59:59;;;;;;;56.97;27.35;;;;;;;;;;5039768;28;20385;-68
2022/12/18 04:02:26;;;;;;;59.83;28.45;;;;;;;;;;5039623;28;20226;-68
2022/12/18 04:04:53;;;;;;;58.30;26.80;;;;;;;;;;5039913;28;20205;-68
2022/12/18 04:07:19;;;;;;;66.38;27.20;;;;;;;;;;5039410;28;20385;-68
2022/12/18 04:09:49;;;;;;;52.55;26.20;;;;;;;;;;5039810;28;20213;-68
2022/12/18 04:12:15;;;;;;;54.20;26.23;;;;;;;;;;5039863;28;20497;-68
2022/12/18 04:14:41;;;;;;;55.00;25.60;;;;;;;;;;5039557;28;20198;-68
2022/12/18 04:17:08;;;;;;;57.15;26.15;;;;;;;;;;5039395;28;20211;-68
2022/12/18 04:19:34;;;;;;;57.30;25.42;;;;;;;;;;5039335;28;20531;-68
2022/12/18 04:22:00;;;;;;;48.88;24.83;;;;;;;;;;5039435;28;20206;-68
2022/12/18 04:24:27;;;;;;;53.95;24.90;;;;;;;;;;5039946;28;20489;-68
2022/12/18 04:26:54;;;;;;;53.00;25.77;;;;;;;;;;5039600;28;20379;-68
2022/12/18 04:29:20;;;;;;;55.25;25.80;;;;;;;;;;5039182;28;20214;-68
2022/12/18 04:31:47;;;;;;;58.38;25.60;;;;;;;;;;5039377;28;20205;-68
2022/12/18 04:34:13;;;;;;;50.88;24.35;;;;;;;;;;5039196;28;20198;-68
2022/12/18 04:36:39;;;;;;;54.08;24.55;;;;;;;;;;5039033;28;20374;-68
2022/12/18 04:39:06;;;;;;;49.03;23.75;;;;;;;;;;5039049;28;20253;-68
2022/12/18 04:41:32;;;;;;;52.67;24.55;;;;;;;;;;5039061;28;20392;-68
2022/12/18 04:43:59;;;;;;;48.67;23.33;;;;;;;;;;5039316;28;20198;-68
2022/12/18 04:46:26;;;;;;;51.92;24.23;;;;;;;;;;5039318;28;20212;-67
2022/12/18 04:48:52;;;;;;;45.22;22.55;;;;;;;;;;5038808;28;20381;-68
2022/12/18 04:51:19;;;;;;;53.25;23.88;;;;;;;;;;5038992;28;20197;-68
2022/12/18 04:53:45;;;;;;;48.42;22.45;;;;;;;;;;5039098;28;20204;-68
2022/12/18 04:56:12;;;;;;;55.42;24.05;;;;;;;;;;5039100;28;20269;-68
2022/12/18 04:58:39;;;;;;;42.58;22.33;;;;;;;;;;5038414;28;20213;-68
2022/12/18 05:01:08;;;;;;;52.60;23.40;;;;;;;;;;5038779;28;20205;-68
2022/12/18 05:03:34;;;;;;;48.10;23.52;;;;;;;;;;5038872;28;20198;-68
2022/12/18 05:06:01;;;;;;;45.88;22.80;;;;;;;;;;5038663;28;20205;-68
2022/12/18 05:08:27;;;;;;;51.90;23.75;;;;;;;;;;5038599;28;20509;-68
2022/12/18 05:10:59;;;;;;;45.45;22.90;;;;;;;;;;5038802;28;20198;-68
2022/12/18 05:13:25;;;;;;;43.42;22.15;;;;;;;;;;5038801;28;20210;-68
2022/12/18 05:15:52;;;;;;;44.55;23.02;;;;;;;;;;5038785;28;20206;-67
2022/12/18 05:18:19;;;;;;;46.63;22.92;;;;;;;;;;5039777;28;20228;-68
2022/12/18 05:20:46;;;;;;;47.15;23.77;;;;;;;;;;5041949;28;20205;-68
2022/12/18 05:23:12;;;;;;;45.53;22.75;;;;;;;;;;5042045;28;20201;-68
2022/12/18 05:25:38;;;;;;;46.80;22.95;;;;;;;;;;5042247;28;20197;-68
2022/12/18 05:28:05;;;;;;;53.38;23.52;;;;;;;;;;5041822;28;20214;-68
2022/12/18 05:30:31;;;;;;;43.47;22.55;;;;;;;;;;5042043;27;20209;-68
2022/12/18 05:32:57;;;;;;;52.75;23.13;;;;;;;;;;5041886;27;20198;-67
2022/12/18 05:35:25;;;;;;;48.65;23.95;;;;;;;;;;5041870;28;20201;-68
2022/12/18 05:37:51;;;;;;;49.35;23.45;;;;;;;;;;5041993;28;20297;-68
2022/12/18 05:40:18;;;;;;;44.00;22.00;;;;;;;;;;5041740;27;20197;-68
2022/12/18 05:42:44;;;;;;;50.17;22.65;;;;;;;;;;5041695;28;20515;-68
2022/12/18 05:45:10;;;;;;;48.25;22.85;;;;;;;;;;5041793;28;20204;-68
2022/12/18 05:47:36;;;;;;;42.50;22.73;;;;;;;;;;5041723;28;20198;-68
2022/12/18 05:50:03;;;;;;;40.50;21.02;;;;;;;;;;5041417;28;20201;-68
2022/12/18 05:52:31;;;;;;;40.28;21.15;;;;;;;;;;5041637;28;20204;-68
2022/12/18 05:54:58;;;;;;;43.72;21.50;;;;;;;;;;5041663;28;20536;-68
2022/12/18 05:57:25;;;;;;;41.58;21.65;;;;;;;;;;5041289;28;20202;-68
2022/12/18 05:59:51;;;;;;;44.47;22.33;;;;;;;;;;5041288;28;20221;-67
2022/12/18 06:02:17;;;;;;;40.33;20.55;;;;;;;;;;5041362;28;20249;-68
2022/12/18 06:04:43;;;;;;;42.83;21.05;;;;;;;;;;5041573;28;20243;-68
2022/12/18 06:07:10;;;;;;;45.35;22.55;;;;;;;;;;5041550;28;20201;-67
2022/12/18 06:09:37;;;;;;;42.85;22.08;;;;;;;;;;5041322;28;20194;-68
2022/12/18 06:12:04;;;;;;;40.50;22.13;;;;;;;;;;5041349;28;20212;-67
2022/12/18 06:14:30;;;;;;;48.22;21.98;;;;;;;;;;5041183;28;20212;-68
2022/12/18 06:16:56;;;;;;;44.17;22.42;;;;;;;;;;5041128;28;20209;-68
2022/12/18 06:19:23;;;;;;;49.92;23.48;;;;;;;;;;5040896;28;20551;-68
2022/12/18 06:21:50;;;;;;;49.67;23.00;;;;;;;;;;5041186;28;20210;-68
2022/12/18 06:24:16;;;;;;;46.30;21.95;;;;;;;;;;5041066;28;20198;-68
2022/12/18 06:26:44;;;;;;;49.25;22.83;;;;;;;;;;5041153;28;20198;-68
2022/12/18 06:29:10;;;;;;;43.15;22.20;;;;;;;;;;5040455;28;20218;-68
2022/12/18 06:31:37;;;;;;;40.03;20.80;;;;;;;;;;5041276;27;20208;-68
2022/12/18 06:34:04;;;;;;;44.28;22.75;;;;;;;;;;5040885;28;20205;-68
2022/12/18 06:36:30;;;;;;;41.85;20.75;;;;;;;;;;5041199;28;20233;-68
2022/12/18 06:38:56;;;;;;;42.30;21.63;;;;;;;;;;5040646;28;20218;-68
2022/12/18 06:41:23;;;;;;;42.33;20.88;;;;;;;;;;5040659;28;20381;-68
2022/12/18 06:43:50;;;;;;;46.42;22.38;;;;;;;;;;5041326;27;20198;-68
2022/12/18 06:46:17;;;;;;;47.42;22.00;;;;;;;;;;5040894;28;20205;-68
2022/12/18 06:48:43;;;;;;;43.95;22.15;;;;;;;;;;5040727;28;20497;-68
2022/12/18 06:51:09;;;;;;;41.65;21.35;;;;;;;;;;5040710;27;20286;-69
2022/12/18 06:53:36;;;;;;;45.97;22.02;;;;;;;;;;5041162;28;20485;-69
2022/12/18 06:56:02;;;;;;;38.55;20.52;;;;;;;;;;5040717;28;20205;-69
2022/12/18 06:58:29;;;;;;;44.92;22.88;;;;;;;;;;5040070;28;20225;-69
2022/12/18 07:01:02;;;;;;;47.35;23.55;;;;;;;;;;5040621;28;20204;-69
2022/12/18 07:03:28;;;;;;;46.35;22.67;;;;;;;;;;5040345;28;20235;-69
2022/12/18 07:05:54;;;;;;;45.00;21.13;;;;;;;;;;5040553;28;20369;-69
2022/12/18 07:08:21;;;;;;;52.88;23.65;;;;;;;;;;5039969;28;20194;-69
2022/12/18 07:10:48;;;;;;;55.58;23.95;;;;;;;;;;5040314;28;20227;-69
2022/12/18 07:13:15;;;;;;;52.15;23.08;;;;;;;;;;5040432;28;20206;-69
2022/12/18 07:15:41;;;;;;;49.30;20.95;;;;;;;;;;5040511;28;20212;-69
2022/12/18 07:18:09;;;;;;;51.38;22.02;;;;;;;;;;5040067;28;20198;-69
2022/12/18 07:20:35;;;;;;;46.13;23.25;;;;;;;;;;5040138;28;20236;-69
2022/12/18 07:23:02;;;;;;;50.65;22.98;;;;;;;;;;5040521;28;20202;-69
2022/12/18 07:25:28;;;;;;;50.33;22.20;;;;;;;;;;5040086;28;20363;-69
2022/12/18 07:27:55;;;;;;;44.20;22.35;;;;;;;;;;5039925;28;20224;-69
2022/12/18 07:30:21;;;;;;;44.33;22.80;;;;;;;;;;5039970;28;20267;-69
2022/12/18 07:32:47;;;;;;;49.85;22.85;;;;;;;;;;5040031;28;20505;-69
2022/12/18 07:35:15;;;;;;;46.53;22.23;;;;;;;;;;5040124;28;20270;-69
2022/12/18 07:37:42;;;;;;;48.78;22.35;;;;;;;;;;5039754;28;20232;-69
2022/12/18 07:40:09;;;;;;;50.28;22.63;;;;;;;;;;5038983;28;20274;-69
2022/12/18 07:42:36;;;;;;;47.40;23.42;;;;;;;;;;5039867;28;20197;-69
2022/12/18 07:45:03;;;;;;;51.95;23.30;;;;;;;;;;5040097;28;20204;-69
2022/12/18 07:47:33;;;;;;;46.83;22.55;;;;;;;;;;5039853;28;20209;-69
2022/12/18 07:49:59;;;;;;;49.63;22.67;;;;;;;;;;5039809;28;20190;-69
2022/12/18 07:52:27;;;;;;;48.90;21.63;;;;;;;;;;5039915;28;20202;-69
2022/12/18 07:54:53;;;;;;;45.00;22.63;;;;;;;;;;5039737;28;20198;-69
2022/12/18 07:57:19;;;;;;;48.70;21.05;;;;;;;;;;5039943;27;20205;-69
2022/12/18 07:59:45;;;;;;;48.00;23.48;;;;;;;;;;5039575;28;20458;-69
2022/12/18 08:02:12;;;;;;;49.78;23.10;;;;;;;;;;5039988;28;20212;-69
2022/12/18 08:04:38;;;;;;;45.05;21.83;;;;;;;;;;5039659;28;20209;-69
2022/12/18 08:07:04;;;;;;;44.60;22.67;;;;;;;;;;5039752;28;20206;-69
2022/12/18 08:09:32;;;;;;;51.92;22.70;;;;;;;;;;5039402;28;20216;-69
2022/12/18 08:11:58;;;;;;;53.05;23.20;;;;;;;;;;5039556;28;20210;-69
2022/12/18 08:14:25;;;;;;;50.28;24.27;;;;;;;;;;5039671;28;20205;-69
2022/12/18 08:16:51;;;;;;;54.03;24.10;;;;;;;;;;5039577;28;20361;-69
2022/12/18 08:19:17;;;;;;;58.50;24.48;;;;;;;;;;5039227;28;20221;-69
2022/12/18 08:21:44;;;;;;;48.55;23.42;;;;;;;;;;5039298;28;20513;-69
2022/12/18 08:24:10;;;;;;;58.15;25.15;;;;;;;;;;5039310;28;20273;-69
2022/12/18 08:26:38;;;;;;;52.00;25.58;;;;;;;;;;5039407;28;20415;-69
2022/12/18 08:29:04;;;;;;;52.08;25.33;;;;;;;;;;5039359;28;20428;-69
2022/12/18 08:31:31;;;;;;;53.63;26.00;;;;;;;;;;5039481;28;20202;-69
2022/12/18 08:33:57;;;;;;;53.25;25.30;;;;;;;;;;5039316;28;20204;-69
2022/12/18 08:36:24;;;;;;;51.80;26.65;;;;;;;;;;5039167;28;20515;-69
2022/12/18 08:38:51;;;;;;;59.08;28.92;;;;;;;;;;5038916;28;20214;-68
2022/12/18 08:41:17;;;;;;;50.17;25.30;;;;;;;;;;5039091;28;20198;-69
2022/12/18 08:46:33;;;;;;;53.20;25.35;;;;;;;;;;5039114;28;20610;-69
2022/12/18 08:48:59;;;;;;;58.85;27.30;;;;;;;;;;5038787;28;20218;-69
2022/12/18 08:51:25;;;;;;;53.42;24.45;;;;;;;;;;5039345;28;20528;-69
2022/12/18 08:53:52;;;;;;;52.22;24.25;;;;;;;;;;5042775;28;20474;-69
2022/12/18 08:56:18;;;;;;;58.42;28.13;;;;;;;;;;5042696;28;20219;-69
2022/12/18 08:58:45;;;;;;;51.85;26.70;;;;;;;;;;5042391;28;20198;-69
2022/12/18 09:01:13;;;;;;;54.50;25.38;;;;;;;;;;5042348;28;20527;-69
2022/12/18 09:03:39;;;;;;;57.78;27.40;;;;;;;;;;5042703;28;20198;-69
2022/12/18 09:06:06;;;;;;;55.25;26.40;;;;;;;;;;5042645;28;20205;-69
2022/12/18 09:08:32;;;;;;;60.55;27.77;;;;;;;;;;5036718;27;20206;-69
2022/12/18 09:10:58;;;;;;;63.92;27.30;;;;;;;;;;5024285;28;20225;-70
2022/12/18 09:13:25;;;;;;;62.70;27.60;;;;;;;;;;5020711;28;20211;-70
2022/12/18 09:15:53;;;;;;;63.45;28.45;;;;;;;;;;5036480;28;20206;-69
2022/12/18 09:18:20;;;;;;;58.55;28.40;;;;;;;;;;5041851;28;20205;-69
2022/12/18 09:20:47;;;;;;;55.05;26.75;;;;;;;;;;5041948;28;20222;-69
2022/12/18 09:23:14;;;;;;;60.55;27.98;;;;;;;;;;5041887;28;20194;-69
2022/12/18 09:25:40;;;;;;;53.83;26.90;;;;;;;;;;5041890;28;20420;-69
2022/12/18 09:28:07;;;;;;;57.60;26.67;;;;;;;;;;5041928;28;20226;-69
2022/12/18 09:30:34;;;;;;;62.15;28.20;;;;;;;;;;5042084;28;20213;-70
2022/12/18 09:33:02;;;;;;;59.42;29.48;;;;;;;;;;5041778;28;20198;-69
2022/12/18 09:35:28;;;;;;;61.58;28.38;;;;;;;;;;5042036;28;20419;-69
2022/12/18 09:37:55;;;;;;;60.45;26.77;;;;;;;;;;5041756;28;20198;-69
2022/12/18 09:40:22;;;;;;;55.15;26.30;;;;;;;;;;5041498;28;20214;-69
2022/12/18 09:42:51;;;;;;;55.25;26.45;;;;;;;;;;5041568;28;20204;-70
2022/12/18 09:45:18;;;;;;;50.83;26.90;;;;;;;;;;5041833;28;20225;-70
2022/12/18 09:47:46;;;;;;;60.75;28.48;;;;;;;;;;5041825;28;20212;-69
2022/12/18 09:50:21;;;;;;;54.42;28.05;;;;;;;;;;5041976;28;20201;-70
2022/12/18 09:52:50;;;;;;;59.20;27.85;;;;;;;;;;5041678;28;20202;-69
2022/12/18 09:55:22;;;;;;;64.20;28.42;;;;;;;;;;5041739;28;20204;-70
2022/12/18 09:57:50;;;;;;;61.58;28.15;;;;;;;;;;5041678;28;20209;-69
2022/12/18 10:00:18;;;;;;;61.22;28.80;;;;;;;;;;5041446;28;20228;-70
2022/12/18 10:02:45;;;;;;;67.70;30.58;;;;;;;;;;5041599;28;20546;-69
2022/12/18 10:05:14;;;;;;;54.85;27.35;;;;;;;;;;5040906;28;20506;-69
2022/12/18 10:07:56;;;;;;;63.17;27.50;;;;;;;;;;5041439;28;20205;-69
2022/12/18 10:10:25;;;;;;;57.92;27.80;;;;;;;;;;5041517;28;20201;-69
2022/12/18 10:12:56;;;;;;;62.13;28.23;;;;;;;;;;5041293;28;20202;-69
2022/12/18 10:15:25;;;;;;;56.45;29.88;;;;;;;;;;5041431;28;20213;-69
2022/12/18 10:17:52;;;;;;;59.92;28.23;;;;;;;;;;5041285;28;20198;-69
2022/12/18 10:20:21;;;;;;;63.13;28.65;;;;;;;;;;5040746;28;20235;-69
2022/12/18 10:22:51;;;;;;;60.08;29.25;;;;;;;;;;5041336;28;20205;-69
2022/12/18 10:25:22;;;;;;;59.33;29.13;;;;;;;;;;5041065;28;20204;-69
2022/12/18 10:27:49;;;;;;;56.50;27.98;;;;;;;;;;5041027;28;20224;-69
2022/12/18 10:30:15;;;;;;;59.88;27.13;;;;;;;;;;5040861;28;20201;-69
2022/12/18 10:32:42;;;;;;;58.20;28.52;;;;;;;;;;5040953;28;20198;-70
2022/12/18 10:35:13;;;;;;;59.92;28.35;;;;;;;;;;5041427;28;20520;-70
2022/12/18 10:37:59;;;;;;;57.08;29.40;;;;;;;;;;5041297;28;20198;-70
2022/12/18 10:40:27;;;;;;;62.45;28.95;;;;;;;;;;5040939;28;20224;-70
2022/12/18 10:43:04;;;;;;;58.90;29.42;;;;;;;;;;5041137;28;20198;-69
2022/12/18 10:45:30;;;;;;;57.75;27.42;;;;;;;;;;5040861;28;20281;-69
2022/12/18 10:47:57;;;;;;;58.33;29.98;;;;;;;;;;5040816;28;20198;-70
2022/12/18 10:50:26;;;;;;;60.22;29.38;;;;;;;;;;5041046;28;20201;-69
2022/12/18 10:52:56;;;;;;;62.70;28.95;;;;;;;;;;5040706;28;20505;-69
2022/12/18 10:55:23;;;;;;;59.13;28.77;;;;;;;;;;5040700;28;20221;-69
2022/12/18 10:57:51;;;;;;;58.30;29.95;;;;;;;;;;5040477;28;20197;-69
2022/12/18 11:00:23;;;;;;;57.97;28.50;;;;;;;;;;5040615;28;20242;-69
2022/12/18 11:02:49;;;;;;;59.97;28.65;;;;;;;;;;5040787;28;20229;-69
2022/12/18 11:05:26;;;;;;;50.95;27.20;;;;;;;;;;5040684;28;20497;-69
2022/12/18 11:07:53;;;;;;;57.05;28.95;;;;;;;;;;5040590;28;20231;-69
2022/12/18 11:10:21;;;;;;;60.40;28.55;;;;;;;;;;5040049;28;20202;-69
2022/12/18 11:12:47;;;;;;;59.38;29.77;;;;;;;;;;5040704;28;20527;-69
2022/12/18 11:15:21;;;;;;;63.63;30.58;;;;;;;;;;5039534;28;20206;-69
2022/12/18 11:17:48;;;;;;;62.95;29.75;;;;;;;;;;5040443;28;20197;-69
2022/12/18 11:20:21;;;;;;;60.60;29.95;;;;;;;;;;5040147;28;20226;-69
2022/12/18 11:22:55;;;;;;;66.18;31.77;;;;;;;;;;5040346;28;20198;-69
2022/12/18 11:25:21;;;;;;;64.00;30.55;;;;;;;;;;5040500;28;20522;-69
2022/12/18 11:27:49;;;;;;;63.85;30.25;;;;;;;;;;5040269;28;20243;-69
2022/12/18 11:30:21;;;;;;;59.72;30.67;;;;;;;;;;5040202;28;20200;-69
2022/12/18 11:32:49;;;;;;;61.97;30.02;;;;;;;;;;5040191;28;20265;-69
2022/12/18 11:35:18;;;;;;;59.80;30.67;;;;;;;;;;5040108;28;20201;-69
2022/12/18 11:37:47;;;;;;;55.05;30.20;;;;;;;;;;5040566;28;20505;-69
2022/12/18 11:40:15;;;;;;;57.25;29.95;;;;;;;;;;5039776;28;20441;-69
2022/12/18 11:42:42;;;;;;;65.80;31.75;;;;;;;;;;5039994;28;20208;-69
2022/12/18 11:45:24;;;;;;;57.92;29.40;;;;;;;;;;5040286;28;20206;-69
2022/12/18 11:47:56;;;;;;;59.67;30.70;;;;;;;;;;5039683;28;20205;-69
2022/12/18 11:50:25;;;;;;;59.65;30.67;;;;;;;;;;5039967;28;20382;-69
2022/12/18 11:52:52;;;;;;;54.47;30.23;;;;;;;;;;5039871;28;20198;-70
2022/12/18 11:55:23;;;;;;;58.67;30.75;;;;;;;;;;5039867;28;20205;-69
2022/12/18 11:57:55;;;;;;;56.05;29.92;;;;;;;;;;5039628;28;20209;-69
2022/12/18 12:00:22;;;;;;;62.38;31.17;;;;;;;;;;5038636;28;20221;-59
2022/12/18 12:03:03;;;;;;;64.53;31.08;;;;;;;;;;5022491;28;20206;-57
2022/12/18 12:05:37;;;;;;;55.65;30.30;;;;;;;;;;5026569;28;20413;-57
2022/12/18 12:08:07;;;;;;;59.50;30.63;;;;;;;;;;5036944;28;20547;-58
2022/12/18 12:10:39;;;;;;;60.10;30.80;;;;;;;;;;5031782;28;20506;-58
2022/12/18 12:13:24;;;;;;;50.88;28.95;;;;;;;;;;5028961;28;20532;-58
2022/12/18 12:15:56;;;;;;;56.72;30.23;;;;;;;;;;5025580;28;20218;-57
2022/12/18 12:18:30;;;;;;;52.97;30.27;;;;;;;;;;5021817;28;20537;-57
2022/12/18 12:21:00;;;;;;;57.25;30.08;;;;;;;;;;5034307;28;20240;-57
2022/12/18 12:23:29;;;;;;;54.60;29.48;;;;;;;;;;5027930;28;20209;-57
2022/12/18 12:25:59;;;;;;;56.97;30.50;;;;;;;;;;5026840;28;20217;-58
2022/12/18 12:28:30;;;;;;;59.03;30.50;;;;;;;;;;5029693;28;20248;-56
2022/12/18 12:31:01;;;;;;;56.95;30.27;;;;;;;;;;5035582;28;20202;-57
2022/12/18 12:33:35;;;;;;;58.97;30.92;;;;;;;;;;5036438;28;20540;-57
2022/12/18 12:36:06;;;;;;;56.72;30.63;;;;;;;;;;5036403;28;20205;-58
2022/12/18 12:38:34;;;;;;;56.95;29.83;;;;;;;;;;5035953;28;20212;-58
2022/12/18 12:41:02;;;;;;;57.17;31.83;;;;;;;;;;5036559;28;20560;-58
2022/12/18 12:43:31;;;;;;;54.78;29.85;;;;;;;;;;5036414;28;20214;-61
2022/12/18 12:46:00;;;;;;;60.92;31.65;;;;;;;;;;5036187;28;20209;-61
2022/12/18 12:48:35;;;;;;;59.85;32.72;;;;;;;;;;5036217;28;20259;-61
2022/12/18 12:51:02;;;;;;;58.00;30.98;;;;;;;;;;5036329;28;20202;-61
2022/12/18 12:53:31;;;;;;;57.92;31.73;;;;;;;;;;5030654;28;20210;-58
2022/12/18 12:55:58;;;;;;;61.22;32.83;;;;;;;;;;5027626;28;20213;-58
2022/12/18 12:58:32;;;;;;;60.17;31.77;;;;;;;;;;5036200;28;20214;-58
2022/12/18 13:01:02;;;;;;;62.13;32.35;;;;;;;;;;5036101;28;20225;-58
2022/12/18 13:03:35;;;;;;;59.25;31.23;;;;;;;;;;5036649;28;20214;-58
2022/12/18 13:06:07;;;;;;;55.67;32.35;;;;;;;;;;5035947;28;20209;-58
2022/12/18 13:08:51;;;;;;;55.83;31.27;;;;;;;;;;5036018;28;20214;-59
2022/12/18 13:14:20;;;;;;;63.88;32.00;;;;;;;;;;5035834;28;20280;-59
2022/12/18 13:16:47;;;;;;;60.70;33.65;;;;;;;;;;5035945;28;20509;-59
2022/12/18 13:19:22;;;;;;;62.78;31.60;;;;;;;;;;5035680;28;20213;-58
2022/12/18 13:21:54;;;;;;;68.63;32.63;;;;;;;;;;5035465;28;20229;-57
2022/12/18 13:24:24;;;;;;;58.72;31.55;;;;;;;;;;5035738;28;20213;-59
2022/12/18 13:26:51;;;;;;;66.60;31.38;;;;;;;;;;5036212;28;20371;-59
2022/12/18 13:29:41;;;;;;;62.00;31.63;;;;;;;;;;5032271;28;20227;-56
2022/12/18 13:32:19;;;;;;;60.65;31.17;;;;;;;;;;5024564;28;20394;-59
2022/12/18 13:34:45;;;;;;;59.65;31.08;;;;;;;;;;5016323;28;20210;-59
2022/12/18 13:37:30;;;;;;;58.72;29.75;;;;;;;;;;5016344;28;20198;-57
2022/12/18 13:39:58;;;;;;;65.35;30.23;;;;;;;;;;5018165;28;20206;-58
2022/12/18 13:45:38;;;;;;;76.88;38.00;;;;;;;;;;5019571;28;20475;-58
2022/12/18 13:48:04;;;;;;;61.17;31.20;;;;;;;;;;5019183;28;20559;-59
2022/12/18 13:50:31;;;;;;;57.53;30.63;;;;;;;;;;5018906;28;20761;-58
2022/12/18 13:52:58;;;;;;;60.00;31.95;;;;;;;;;;5028759;28;20221;-59
2022/12/18 13:55:26;;;;;;;59.75;30.50;;;;;;;;;;5019173;28;20213;-58
2022/12/18 13:58:03;;;;;;;70.70;31.42;;;;;;;;;;5027034;28;20217;-58
2022/12/18 14:00:30;;;;;;;57.00;28.58;;;;;;;;;;5019529;28;20585;-59
2022/12/18 14:02:56;;;;;;;61.53;30.60;;;;;;;;;;5023219;28;20205;-59
2022/12/18 14:05:23;;;;;;;56.08;30.02;;;;;;;;;;5019846;28;20411;-58
2022/12/18 14:07:49;;;;;;;64.95;29.95;;;;;;;;;;5018902;28;20222;-58
2022/12/18 14:10:17;;;;;;;62.42;31.40;;;;;;;;;;5019482;28;20229;-58
2022/12/18 14:12:59;;;;;;;55.40;30.90;;;;;;;;;;5018872;28;20213;-56
2022/12/18 14:15:30;;;;;;;58.78;30.67;;;;;;;;;;5018989;28;20206;-57
2022/12/18 14:17:58;;;;;;;63.45;32.65;;;;;;;;;;5018981;28;20502;-59
2022/12/18 14:20:25;;;;;;;63.22;31.20;;;;;;;;;;5018456;28;20236;-57
2022/12/18 14:22:51;;;;;;;65.63;34.42;;;;;;;;;;5036592;28;20217;-58
2022/12/18 14:25:19;;;;;;;65.30;33.28;;;;;;;;;;5038858;27;20581;-57
2022/12/18 14:27:47;;;;;;;64.28;31.75;;;;;;;;;;5038463;28;20422;-56
2022/12/18 14:30:27;;;;;;;62.35;31.60;;;;;;;;;;5037971;28;20232;-60
2022/12/18 14:33:03;;;;;;;60.65;31.70;;;;;;;;;;5038360;28;20565;-59